createdAt,value
2023-02-16T00:00:38.095Z,19.80
2023-02-16T00:03:45.775Z,19.80
2023-02-16T00:06:53.526Z,22.00
2023-02-16T00:10:00.543Z,21.20
2023-02-16T00:13:08.273Z,22.90
2023-02-16T00:16:15.561Z,23.10
2023-02-16T00:19:22.536Z,22.40
2023-02-16T00:22:30.122Z,22.70
2023-02-16T00:25:37.325Z,21.20
2023-02-16T00:28:44.984Z,21.80
2023-02-16T00:31:52.677Z,22.30
2023-02-16T00:34:59.821Z,22.10
2023-02-16T00:38:07.440Z,23.80
2023-02-16T00:41:14.691Z,23.90
2023-02-16T00:44:22.199Z,24.60
2023-02-16T00:47:29.220Z,26.30
2023-02-16T00:50:36.510Z,24.30
2023-02-16T00:53:43.782Z,23.90
2023-02-16T00:56:51.041Z,24.20
2023-02-16T00:59:58.724Z,23.40
2023-02-16T01:03:06.011Z,23.50
2023-02-16T01:06:13.303Z,23.20
2023-02-16T01:09:21.012Z,23.90
2023-02-16T01:12:27.916Z,22.70
2023-02-16T01:15:35.839Z,24.10
2023-02-16T01:18:43.388Z,23.40
2023-02-16T01:21:50.460Z,24.90
2023-02-16T01:24:57.692Z,25.50
2023-02-16T01:28:05.434Z,23.60
2023-02-16T01:31:12.798Z,22.30
2023-02-16T01:34:20.780Z,22.90
2023-02-16T01:37:28.391Z,22.40
2023-02-16T01:40:36.163Z,26.40
2023-02-16T01:43:44.192Z,25.00
2023-02-16T01:46:51.980Z,25.60
2023-02-16T01:50:02.132Z,28.10
2023-02-16T01:53:00.099Z,29.20
2023-02-16T01:56:07.765Z,28.70
2023-02-16T01:59:15.368Z,28.80
2023-02-16T02:02:23.313Z,30.00
2023-02-16T02:05:30.947Z,29.40
2023-02-16T02:08:39.191Z,28.70
2023-02-16T02:11:47.087Z,28.90
2023-02-16T02:14:55.606Z,28.80
2023-02-16T02:18:02.919Z,30.20
2023-02-16T02:21:11.137Z,28.40
2023-02-16T02:24:19.308Z,29.60
2023-02-16T02:27:26.646Z,30.50
2023-02-16T02:30:34.880Z,30.70
2023-02-16T02:33:42.692Z,30.90
2023-02-16T02:36:50.409Z,30.80
2023-02-16T02:39:58.629Z,31.00
2023-02-16T02:43:06.227Z,29.10
2023-02-16T02:46:13.903Z,28.50
2023-02-16T02:49:21.581Z,29.60
2023-02-16T02:52:29.241Z,28.70
2023-02-16T02:55:36.801Z,28.10
2023-02-16T02:58:44.490Z,27.90
2023-02-16T03:01:52.376Z,28.50
2023-02-16T03:04:59.700Z,27.50
2023-02-16T03:08:07.774Z,29.50
2023-02-16T03:11:15.825Z,28.90
2023-02-16T03:14:23.108Z,29.70
2023-02-16T03:17:31.184Z,30.50
2023-02-16T03:20:38.849Z,29.90
2023-02-16T03:23:46.583Z,31.70
2023-02-16T03:26:54.603Z,30.60
2023-02-16T03:30:02.353Z,30.10
2023-02-16T03:33:10.244Z,32.90
2023-02-16T03:36:18.015Z,32.50
2023-02-16T03:39:26.107Z,32.20
2023-02-16T03:42:33.633Z,31.90
2023-02-16T03:45:41.403Z,34.20
2023-02-16T03:48:49.389Z,32.10
2023-02-16T03:51:56.714Z,33.70
2023-02-16T03:55:04.298Z,33.20
2023-02-16T03:58:12.254Z,32.10
2023-02-16T04:01:19.581Z,33.40
2023-02-16T04:04:27.626Z,31.30
2023-02-16T04:07:35.678Z,32.50
2023-02-16T04:10:43.196Z,34.70
2023-02-16T04:13:51.344Z,33.50
2023-02-16T04:16:59.361Z,33.30
2023-02-16T04:20:06.701Z,32.80
2023-02-16T04:23:14.758Z,32.80
2023-02-16T04:26:22.497Z,34.10
2023-02-16T04:29:30.149Z,33.80
2023-02-16T04:32:38.111Z,37.10
2023-02-16T04:35:45.825Z,36.70
2023-02-16T04:38:53.779Z,36.90
2023-02-16T04:42:01.839Z,36.80
2023-02-16T04:45:09.448Z,35.10
2023-02-16T04:48:17.214Z,36.70
2023-02-16T04:51:24.994Z,38.00
2023-02-16T04:54:33.066Z,37.60
2023-02-16T04:57:40.854Z,38.60
2023-02-16T05:00:48.850Z,41.00
2023-02-16T05:03:57.212Z,40.80
2023-02-16T05:07:05.100Z,41.60
2023-02-16T05:10:12.677Z,42.70
2023-02-16T05:13:20.941Z,43.50
2023-02-16T05:16:28.651Z,42.80
2023-02-16T05:19:36.361Z,45.20
2023-02-16T05:22:44.404Z,44.90
2023-02-16T05:25:51.886Z,46.10
2023-02-16T05:28:59.731Z,47.00
2023-02-16T05:32:07.890Z,47.00
2023-02-16T05:35:16.134Z,48.00
2023-02-16T05:38:23.782Z,49.60
2023-02-16T05:41:31.163Z,48.20
2023-02-16T05:44:38.901Z,49.00
2023-02-16T05:47:47.356Z,48.70
2023-02-16T05:50:55.113Z,47.30
2023-02-16T05:54:03.040Z,60.90
2023-02-16T05:57:10.943Z,59.20
2023-02-16T06:00:18.593Z,63.30
2023-02-16T06:03:26.467Z,49.30
2023-02-16T06:06:34.212Z,50.70
2023-02-16T06:09:42.461Z,49.90
2023-02-16T06:12:50.285Z,51.20
2023-02-16T06:15:58.059Z,49.80
2023-02-16T06:19:06.266Z,49.60
2023-02-16T06:22:13.922Z,48.60
2023-02-16T06:25:21.958Z,47.90
2023-02-16T06:28:30.189Z,51.60
2023-02-16T06:31:38.118Z,48.90
2023-02-16T06:34:46.444Z,50.10
2023-02-16T06:37:54.551Z,48.40
2023-02-16T06:41:02.387Z,54.30
2023-02-16T06:44:10.689Z,52.20
2023-02-16T06:47:18.399Z,51.30
2023-02-16T06:50:26.147Z,51.40
2023-02-16T06:53:34.168Z,51.10
2023-02-16T06:56:41.811Z,50.70
2023-02-16T06:59:49.543Z,52.90
2023-02-16T07:02:57.638Z,54.20
2023-02-16T07:06:05.230Z,54.50
2023-02-16T07:09:13.487Z,53.80
2023-02-16T07:12:21.485Z,51.10
2023-02-16T07:15:28.721Z,52.20
2023-02-16T07:18:36.914Z,50.20
2023-02-16T07:21:45.103Z,51.20
2023-02-16T07:24:52.408Z,50.20
2023-02-16T07:28:00.757Z,51.00
2023-02-16T07:31:09.110Z,50.60
2023-02-16T07:34:16.472Z,50.30
2023-02-16T07:37:24.740Z,48.40
2023-02-16T07:40:32.380Z,47.90
2023-02-16T07:43:39.976Z,47.80
2023-02-16T07:46:48.123Z,45.60
2023-02-16T07:49:55.949Z,45.50
2023-02-16T07:53:03.600Z,46.20
2023-02-16T07:56:11.519Z,43.70
2023-02-16T07:59:19.158Z,43.60
2023-02-16T08:02:26.852Z,43.00
2023-02-16T08:05:34.401Z,43.30
2023-02-16T08:08:42.378Z,41.20
2023-02-16T08:11:50.370Z,38.70
2023-02-16T08:14:57.660Z,38.90
2023-02-16T08:18:05.606Z,39.10
2023-02-16T08:21:13.376Z,38.00
2023-02-16T08:24:20.836Z,34.70
2023-02-16T08:27:28.962Z,33.70
2023-02-16T08:30:37.232Z,32.40
2023-02-16T08:33:45.253Z,31.40
2023-02-16T08:36:53.254Z,31.20
2023-02-16T08:40:00.837Z,28.20
2023-02-16T08:43:08.826Z,27.50
2023-02-16T08:46:17.323Z,26.70
2023-02-16T08:49:25.191Z,26.90
2023-02-16T08:52:32.970Z,26.50
2023-02-16T08:55:40.564Z,24.80
2023-02-16T08:58:48.759Z,25.70
2023-02-16T09:01:56.793Z,24.60
2023-02-16T09:05:04.635Z,24.50
2023-02-16T09:08:13.107Z,22.80
2023-02-16T09:11:21.074Z,23.50
2023-02-16T09:14:29.130Z,22.50
2023-02-16T09:17:36.976Z,21.80
2023-02-16T09:20:46.859Z,22.60
2023-02-16T09:23:54.882Z,22.10
2023-02-16T09:27:02.986Z,21.50
2023-02-16T09:30:10.841Z,21.10
2023-02-16T09:33:19.434Z,19.30
2023-02-16T09:36:27.499Z,20.30
2023-02-16T09:39:34.900Z,19.80
2023-02-16T09:42:43.132Z,19.60
2023-02-16T09:45:51.639Z,19.80
2023-02-16T09:48:59.485Z,20.10
2023-02-16T09:52:07.215Z,18.80
2023-02-16T09:55:14.837Z,20.50
2023-02-16T09:58:23.149Z,20.40
2023-02-16T10:01:30.628Z,19.20
2023-02-16T10:04:38.317Z,21.70
2023-02-16T10:07:46.430Z,19.40
2023-02-16T10:10:54.081Z,18.40
2023-02-16T10:14:02.230Z,19.00
2023-02-16T10:17:10.185Z,17.10
2023-02-16T10:20:17.728Z,17.50
2023-02-16T10:23:25.882Z,17.70
2023-02-16T10:26:33.372Z,17.10
2023-02-16T10:29:41.282Z,16.60
2023-02-16T10:32:49.646Z,16.70
2023-02-16T10:35:57.448Z,17.20
2023-02-16T10:39:05.468Z,17.50
2023-02-16T10:42:13.772Z,17.40
2023-02-16T10:45:21.654Z,17.10
2023-02-16T10:48:29.588Z,17.10
2023-02-16T10:51:37.433Z,17.20
2023-02-16T10:54:45.684Z,16.80
2023-02-16T10:57:52.947Z,16.30
2023-02-16T11:01:01.126Z,16.20
2023-02-16T11:04:09.230Z,16.80
2023-02-16T11:07:16.654Z,16.30
2023-02-16T11:10:24.699Z,17.20
2023-02-16T11:13:32.629Z,16.00
2023-02-16T11:16:40.010Z,16.10
2023-02-16T11:19:48.289Z,15.70
2023-02-16T11:22:56.226Z,16.00
2023-02-16T11:26:04.171Z,16.50
2023-02-16T11:29:12.494Z,16.00
2023-02-16T11:32:20.300Z,15.80
2023-02-16T11:35:28.116Z,16.10
2023-02-16T11:38:35.560Z,16.50
2023-02-16T11:41:44.019Z,16.80
2023-02-16T11:44:51.773Z,16.20
2023-02-16T11:47:59.348Z,16.30
2023-02-16T11:51:07.748Z,16.80
2023-02-16T11:54:15.742Z,17.30
2023-02-16T11:57:23.354Z,16.50
2023-02-16T12:00:31.587Z,16.00
2023-02-16T12:03:39.416Z,15.60
2023-02-16T12:06:47.252Z,17.10
2023-02-16T12:09:55.567Z,16.70
2023-02-16T12:13:03.206Z,16.00
2023-02-16T12:16:11.551Z,15.50
2023-02-16T12:19:19.813Z,15.50
2023-02-16T12:22:27.972Z,15.60
2023-02-16T12:25:35.621Z,15.60
2023-02-16T12:28:43.779Z,15.70
2023-02-16T12:31:52.243Z,15.50
2023-02-16T12:34:59.971Z,14.70
2023-02-16T12:38:07.619Z,16.10
2023-02-16T12:41:16.005Z,15.50
2023-02-16T12:44:25.509Z,16.20
2023-02-16T12:47:34.111Z,14.10
2023-02-16T12:50:42.459Z,14.90
2023-02-16T12:53:49.813Z,15.20
2023-02-16T12:56:57.608Z,16.80
2023-02-16T13:00:04.878Z,15.90
2023-02-16T13:03:13.415Z,16.00
2023-02-16T13:06:21.871Z,16.40
2023-02-16T13:09:29.689Z,17.00
2023-02-16T13:12:38.038Z,17.20
2023-02-16T13:15:45.675Z,17.20
2023-02-16T13:18:53.985Z,15.40
2023-02-16T13:22:01.817Z,14.60
2023-02-16T13:25:09.513Z,16.30
2023-02-16T13:28:17.737Z,15.30
2023-02-16T13:31:25.575Z,15.30
2023-02-16T13:34:33.372Z,15.20
2023-02-16T13:37:41.078Z,15.70
2023-02-16T13:40:48.504Z,16.80
2023-02-16T13:43:56.420Z,15.00
2023-02-16T13:47:04.264Z,16.10
2023-02-16T13:50:11.992Z,14.40
2023-02-16T13:53:19.809Z,14.90
2023-02-16T13:56:27.206Z,15.20
2023-02-16T13:59:35.613Z,15.40
2023-02-16T14:02:43.524Z,14.90
2023-02-16T14:05:51.167Z,15.70
2023-02-16T14:08:59.227Z,15.40
2023-02-16T14:12:07.289Z,15.20
2023-02-16T14:15:14.748Z,14.70
2023-02-16T14:18:22.831Z,16.10
2023-02-16T14:21:31.068Z,15.00
2023-02-16T14:24:38.525Z,14.60
2023-02-16T14:27:46.421Z,14.00
2023-02-16T14:30:54.133Z,14.70
2023-02-16T14:34:02.025Z,14.90
2023-02-16T14:37:09.703Z,14.70
2023-02-16T14:40:17.361Z,16.00
2023-02-16T14:43:25.187Z,15.90
2023-02-16T14:46:32.705Z,15.10
2023-02-16T14:49:41.052Z,15.50
2023-02-16T14:52:48.442Z,14.50
2023-02-16T14:55:56.425Z,13.50
2023-02-16T14:59:04.656Z,14.20
2023-02-16T15:02:11.957Z,15.10
2023-02-16T15:05:19.858Z,15.10
2023-02-16T15:08:27.759Z,14.40
2023-02-16T15:11:35.190Z,14.00
2023-02-16T15:14:43.398Z,14.40
2023-02-16T15:17:51.020Z,15.00
2023-02-16T15:20:58.939Z,13.80
2023-02-16T15:24:07.203Z,14.40
2023-02-16T15:27:14.952Z,13.90
2023-02-16T15:30:23.163Z,13.10
2023-02-16T15:33:30.825Z,14.00
2023-02-16T15:36:38.843Z,14.20
2023-02-16T15:40:06.136Z,12.90
2023-02-16T15:42:51.593Z,12.70
2023-02-16T15:45:59.554Z,13.60
2023-02-16T15:49:07.150Z,13.70
2023-02-16T15:52:14.590Z,13.40
2023-02-16T15:55:22.586Z,13.90
2023-02-16T15:58:31.076Z,13.20
2023-02-16T16:01:40.019Z,14.20
2023-02-16T16:04:48.199Z,14.20
2023-02-16T16:07:55.983Z,13.40
2023-02-16T16:11:03.941Z,14.60
2023-02-16T16:14:11.800Z,15.40
2023-02-16T16:17:19.595Z,13.90
2023-02-16T16:20:27.197Z,14.80
2023-02-16T16:23:34.750Z,14.10
2023-02-16T16:26:42.630Z,14.60
2023-02-16T16:29:50.410Z,14.60
2023-02-16T16:32:58.368Z,14.60
2023-02-16T16:36:06.491Z,15.30
2023-02-16T16:39:14.114Z,15.60
2023-02-16T16:42:22.371Z,15.00
2023-02-16T16:45:30.809Z,15.70
2023-02-16T16:48:38.180Z,14.50
2023-02-16T16:51:46.249Z,14.80
2023-02-16T16:54:53.993Z,15.90
2023-02-16T16:58:01.582Z,15.30
2023-02-16T17:01:09.343Z,15.30
2023-02-16T17:04:17.234Z,15.00
2023-02-16T17:07:24.889Z,14.70
2023-02-16T17:10:32.703Z,16.20
2023-02-16T17:13:40.998Z,16.70
2023-02-16T17:16:48.686Z,15.70
2023-02-16T17:19:56.269Z,15.50
2023-02-16T17:23:04.406Z,16.60
2023-02-16T17:26:12.248Z,16.40
2023-02-16T17:29:19.818Z,17.00
2023-02-16T17:32:28.138Z,17.20
2023-02-16T17:35:35.481Z,16.20
2023-02-16T17:38:43.391Z,17.10
2023-02-16T17:41:51.513Z,16.90
2023-02-16T17:44:58.928Z,16.90
2023-02-16T17:48:07.106Z,16.40
2023-02-16T17:51:15.211Z,18.30
2023-02-16T17:54:22.558Z,15.90
2023-02-16T17:57:30.676Z,16.40
2023-02-16T18:00:38.512Z,16.90
2023-02-16T18:03:46.323Z,16.40
2023-02-16T18:06:54.539Z,16.80
2023-02-16T18:10:02.365Z,16.80
2023-02-16T18:13:10.288Z,17.10
2023-02-16T18:16:18.537Z,16.30
2023-02-16T18:19:26.239Z,16.60
2023-02-16T18:22:33.934Z,17.20
2023-02-16T18:25:42.199Z,17.50
2023-02-16T18:28:49.814Z,17.80
2023-02-16T18:31:57.625Z,17.50
2023-02-16T18:35:05.309Z,16.60
2023-02-16T18:38:13.516Z,17.80
2023-02-16T18:41:21.491Z,16.60
2023-02-16T18:44:28.919Z,17.60
2023-02-16T18:47:36.664Z,17.40
2023-02-16T18:50:44.040Z,18.80
2023-02-16T18:53:51.758Z,17.90
2023-02-16T18:56:59.926Z,17.30
2023-02-16T19:00:07.539Z,18.90
2023-02-16T19:03:14.925Z,18.60
2023-02-16T19:06:23.067Z,18.70
2023-02-16T19:09:30.574Z,18.90
2023-02-16T19:12:38.244Z,18.30
2023-02-16T19:15:46.114Z,19.90
2023-02-16T19:18:53.389Z,19.30
2023-02-16T19:22:01.634Z,18.70
2023-02-16T19:25:09.271Z,19.90
2023-02-16T19:28:16.827Z,20.30
2023-02-16T19:31:25.133Z,19.60
2023-02-16T19:34:32.466Z,19.80
2023-02-16T19:37:40.053Z,20.80
2023-02-16T19:40:47.455Z,20.80
2023-02-16T19:43:56.072Z,21.40
2023-02-16T19:47:03.719Z,20.70
2023-02-16T19:50:12.600Z,20.90
2023-02-16T19:53:20.870Z,21.70
2023-02-16T19:56:28.980Z,20.70
2023-02-16T19:59:37.815Z,21.20
2023-02-16T20:02:46.536Z,20.80
2023-02-16T20:05:53.941Z,21.60
2023-02-16T20:09:02.321Z,24.00
2023-02-16T20:12:10.149Z,23.10
2023-02-16T20:15:18.183Z,22.10
2023-02-16T20:18:26.101Z,21.80
2023-02-16T20:21:33.616Z,22.10
2023-02-16T20:24:41.781Z,23.10
2023-02-16T20:27:49.519Z,21.50
2023-02-16T20:30:57.120Z,21.40
2023-02-16T20:34:04.779Z,22.70
2023-02-16T20:37:12.480Z,23.30
2023-02-16T20:40:20.233Z,22.40
2023-02-16T20:43:27.974Z,22.90
2023-02-16T20:46:35.420Z,22.90
2023-02-16T20:49:43.554Z,22.30
2023-02-16T20:52:51.182Z,22.30
2023-02-16T20:55:59.161Z,22.60
2023-02-16T20:59:08.235Z,22.90
2023-02-16T21:02:16.247Z,22.90
2023-02-16T21:05:23.565Z,22.20
2023-02-16T21:08:31.756Z,21.70
2023-02-16T21:11:39.564Z,22.40
2023-02-16T21:14:47.317Z,21.10
2023-02-16T21:17:55.523Z,21.10
2023-02-16T21:21:03.135Z,21.10
2023-02-16T21:24:10.854Z,21.50
2023-02-16T21:27:18.512Z,20.40
2023-02-16T21:30:26.194Z,21.20
2023-02-16T21:33:33.832Z,21.60
2023-02-16T21:36:41.504Z,20.90
2023-02-16T21:39:49.148Z,21.10
2023-02-16T21:42:56.937Z,20.80
2023-02-16T21:46:04.550Z,20.40
2023-02-16T21:49:12.903Z,20.30
2023-02-16T21:52:20.768Z,20.40
2023-02-16T21:55:28.198Z,20.20
2023-02-16T21:58:36.303Z,20.50
2023-02-16T22:01:44.155Z,20.50
2023-02-16T22:04:51.766Z,20.60
2023-02-16T22:07:59.704Z,21.60
2023-02-16T22:11:06.985Z,21.10
2023-02-16T22:14:15.148Z,21.50
2023-02-16T22:17:23.185Z,20.60
2023-02-16T22:20:30.684Z,21.00
2023-02-16T22:23:38.377Z,20.30
2023-02-16T22:26:46.492Z,22.20
2023-02-16T22:29:54.246Z,22.00
2023-02-16T22:33:01.872Z,22.30
2023-02-16T22:36:09.848Z,23.70
2023-02-16T22:39:17.502Z,23.40
2023-02-16T22:42:25.376Z,23.20
2023-02-16T22:45:33.078Z,22.60
2023-02-16T22:48:41.771Z,21.90
2023-02-16T22:51:49.492Z,22.20
2023-02-16T22:54:57.111Z,22.20
2023-02-16T22:58:04.891Z,22.90
2023-02-16T23:01:12.269Z,21.60
2023-02-16T23:04:20.486Z,22.40
2023-02-16T23:07:28.621Z,22.80
2023-02-16T23:10:36.001Z,22.60
2023-02-16T23:13:44.305Z,23.40
2023-02-16T23:16:52.352Z,24.80
2023-02-16T23:19:59.680Z,23.10
2023-02-16T23:23:07.396Z,24.10
2023-02-16T23:26:15.247Z,24.70
2023-02-16T23:29:22.580Z,24.80
2023-02-16T23:32:30.500Z,24.40
2023-02-16T23:35:37.902Z,25.30
2023-02-16T23:38:45.476Z,26.20
2023-02-16T23:41:53.377Z,24.90
2023-02-16T23:45:00.925Z,27.00
2023-02-16T23:48:08.636Z,26.70
2023-02-16T23:51:16.577Z,27.00
2023-02-16T23:54:24.294Z,26.10
2023-02-16T23:57:31.832Z,26.40
